Aviation Digital Data Service (ADDS)

Output produced by METARs form (1218 UTC 22 March 2019)
found at http://www.aviationweather.gov/metar/data/
 
Forecast for: RJOT (TAKAMATSU AIRPOR, JP)
Text: TAF RJOT 221106Z 2212/2318 15006KT 9999 FEW025
Forecast period: 1200 UTC 22 March 2019 to 0300 UTC 23 March 2019
Forecast type: FROM: standard forecast or significant change
Winds: from the SSE (150 degrees) at 7 MPH (6 knots; 3.1 m/s)
Visibility: 6 or more miles 10+ km)
Ceiling: at least 12,000 feet AGL
Clouds: few clouds at 2500 feet AGL
Weather: no significant weather forecast for this period
Text: BECMG 2303/2306 28010KT
Forecast period: 0300 to 0900 UTC 23 March 2019
Forecast type: BECOMING: Conditions expected to become as follows by 0600 UTC 23 March 2019
Winds: from the W (280 degrees) at 12 MPH (10 knots; 5.1 m/s)
Visibility: 6 or more miles 10+ km)
Ceiling: at least 12,000 feet AGL
Clouds: few clouds at 2500 feet AGL
Weather: no significant weather forecast for this period
Text: BECMG 2309/2312 22007KT
Forecast period: 0900 to 1800 UTC 23 March 2019
Forecast type: BECOMING: Conditions expected to become as follows by 1200 UTC 23 March 2019
Winds: from the SW (220 degrees) at 8 MPH (7 knots; 3.6 m/s)
Visibility: 6 or more miles 10+ km)
Ceiling: at least 12,000 feet AGL
Clouds: few clouds at 2500 feet AGL
Weather: no significant weather forecast for this period